sensor_id;sensor_type;location;lat;lon;timestamp;temperature;humidity
8459;DHT22;4266;48.816;9.154;2023-08-17T00:01:56;19.10;99.90
8459;DHT22;4266;48.816;9.154;2023-08-17T00:04:22;19.10;99.90
8459;DHT22;4266;48.816;9.154;2023-08-17T00:06:48;19.10;99.90
8459;DHT22;4266;48.816;9.154;2023-08-17T00:09:14;19.10;99.90
8459;DHT22;4266;48.816;9.154;2023-08-17T00:11:39;19.10;99.90
8459;DHT22;4266;48.816;9.154;2023-08-17T00:14:05;19.10;99.90
8459;DHT22;4266;48.816;9.154;2023-08-17T00:16:32;19.10;99.90
8459;DHT22;4266;48.816;9.154;2023-08-17T00:18:57;19.10;99.90
8459;DHT22;4266;48.816;9.154;2023-08-17T00:21:23;19.10;99.90
8459;DHT22;4266;48.816;9.154;2023-08-17T00:23:49;19.10;99.90
8459;DHT22;4266;48.816;9.154;2023-08-17T00:26:15;19.10;99.90
8459;DHT22;4266;48.816;9.154;2023-08-17T00:28:41;19.10;99.90
8459;DHT22;4266;48.816;9.154;2023-08-17T00:31:06;19.10;99.90
8459;DHT22;4266;48.816;9.154;2023-08-17T00:33:33;19.20;99.90
8459;DHT22;4266;48.816;9.154;2023-08-17T00:35:59;19.20;99.90
8459;DHT22;4266;48.816;9.154;2023-08-17T00:38:24;19.10;99.90
8459;DHT22;4266;48.816;9.154;2023-08-17T00:40:50;19.20;99.90
8459;DHT22;4266;48.816;9.154;2023-08-17T00:43:16;19.20;99.90
8459;DHT22;4266;48.816;9.154;2023-08-17T00:45:41;19.10;99.90
8459;DHT22;4266;48.816;9.154;2023-08-17T00:48:07;19.10;99.90
8459;DHT22;4266;48.816;9.154;2023-08-17T00:50:33;19.10;99.90
8459;DHT22;4266;48.816;9.154;2023-08-17T00:52:58;19.10;99.90
8459;DHT22;4266;48.816;9.154;2023-08-17T00:55:24;19.10;99.90
8459;DHT22;4266;48.816;9.154;2023-08-17T00:57:50;19.00;99.90
8459;DHT22;4266;48.816;9.154;2023-08-17T01:00:16;19.00;99.90
8459;DHT22;4266;48.816;9.154;2023-08-17T01:02:41;19.00;99.90
8459;DHT22;4266;48.816;9.154;2023-08-17T01:05:07;19.00;99.90
8459;DHT22;4266;48.816;9.154;2023-08-17T01:07:33;19.00;99.90
8459;DHT22;4266;48.816;9.154;2023-08-17T01:09:58;19.00;99.90
8459;DHT22;4266;48.816;9.154;2023-08-17T01:12:29;19.10;99.90
8459;DHT22;4266;48.816;9.154;2023-08-17T01:15:23;19.10;99.90
8459;DHT22;4266;48.816;9.154;2023-08-17T01:17:56;19.10;99.90
8459;DHT22;4266;48.816;9.154;2023-08-17T01:20:20;19.20;99.90
8459;DHT22;4266;48.816;9.154;2023-08-17T01:22:46;19.20;99.90
8459;DHT22;4266;48.816;9.154;2023-08-17T01:25:11;19.20;99.90
8459;DHT22;4266;48.816;9.154;2023-08-17T01:27:39;19.20;99.90
8459;DHT22;4266;48.816;9.154;2023-08-17T01:30:03;19.30;99.90
8459;DHT22;4266;48.816;9.154;2023-08-17T01:32:30;19.40;99.90
8459;DHT22;4266;48.816;9.154;2023-08-17T01:34:58;19.40;99.90
8459;DHT22;4266;48.816;9.154;2023-08-17T01:37:22;19.50;99.90
8459;DHT22;4266;48.816;9.154;2023-08-17T01:39:49;19.50;99.90
8459;DHT22;4266;48.816;9.154;2023-08-17T01:42:14;19.50;99.90
8459;DHT22;4266;48.816;9.154;2023-08-17T01:44:40;19.50;99.90
8459;DHT22;4266;48.816;9.154;2023-08-17T01:47:05;19.60;99.90
8459;DHT22;4266;48.816;9.154;2023-08-17T01:49:31;19.60;99.90
8459;DHT22;4266;48.816;9.154;2023-08-17T01:51:57;19.70;99.90
8459;DHT22;4266;48.816;9.154;2023-08-17T01:54:22;19.70;99.90
8459;DHT22;4266;48.816;9.154;2023-08-17T01:56:48;19.60;99.90
8459;DHT22;4266;48.816;9.154;2023-08-17T01:59:14;19.70;99.90
8459;DHT22;4266;48.816;9.154;2023-08-17T02:01:39;19.60;99.90
8459;DHT22;4266;48.816;9.154;2023-08-17T02:04:05;19.60;99.90
8459;DHT22;4266;48.816;9.154;2023-08-17T02:06:32;19.60;99.90
8459;DHT22;4266;48.816;9.154;2023-08-17T02:08:58;19.60;99.90
8459;DHT22;4266;48.816;9.154;2023-08-17T02:11:24;19.70;99.90
8459;DHT22;4266;48.816;9.154;2023-08-17T02:13:49;19.70;99.90
8459;DHT22;4266;48.816;9.154;2023-08-17T02:16:15;19.60;99.90
8459;DHT22;4266;48.816;9.154;2023-08-17T02:18:41;19.60;99.90
8459;DHT22;4266;48.816;9.154;2023-08-17T02:21:06;19.60;99.90
8459;DHT22;4266;48.816;9.154;2023-08-17T02:23:32;19.60;99.90
8459;DHT22;4266;48.816;9.154;2023-08-17T02:25:58;19.60;99.90
8459;DHT22;4266;48.816;9.154;2023-08-17T02:28:24;19.70;99.90
8459;DHT22;4266;48.816;9.154;2023-08-17T02:30:54;19.70;99.90
8459;DHT22;4266;48.816;9.154;2023-08-17T02:33:16;19.70;99.90
8459;DHT22;4266;48.816;9.154;2023-08-17T02:35:42;19.70;99.90
8459;DHT22;4266;48.816;9.154;2023-08-17T02:38:08;19.80;99.90
8459;DHT22;4266;48.816;9.154;2023-08-17T02:40:34;19.70;99.90
8459;DHT22;4266;48.816;9.154;2023-08-17T02:42:59;19.80;99.90
8459;DHT22;4266;48.816;9.154;2023-08-17T02:45:25;19.80;99.90
8459;DHT22;4266;48.816;9.154;2023-08-17T02:47:51;19.80;99.90
8459;DHT22;4266;48.816;9.154;2023-08-17T02:50:17;19.70;99.90
8459;DHT22;4266;48.816;9.154;2023-08-17T02:52:42;19.70;99.90
8459;DHT22;4266;48.816;9.154;2023-08-17T02:55:08;19.70;99.90
8459;DHT22;4266;48.816;9.154;2023-08-17T02:57:34;19.70;99.90
8459;DHT22;4266;48.816;9.154;2023-08-17T03:00:00;19.70;99.90
8459;DHT22;4266;48.816;9.154;2023-08-17T03:02:26;19.70;99.90
8459;DHT22;4266;48.816;9.154;2023-08-17T03:04:52;19.80;99.90
8459;DHT22;4266;48.816;9.154;2023-08-17T03:07:17;19.70;99.90
8459;DHT22;4266;48.816;9.154;2023-08-17T03:09:43;19.70;99.90
8459;DHT22;4266;48.816;9.154;2023-08-17T03:12:09;19.70;99.90
8459;DHT22;4266;48.816;9.154;2023-08-17T03:14:34;19.70;99.90
8459;DHT22;4266;48.816;9.154;2023-08-17T03:17:00;19.70;99.90
8459;DHT22;4266;48.816;9.154;2023-08-17T03:19:26;19.80;99.90
8459;DHT22;4266;48.816;9.154;2023-08-17T03:21:51;19.70;99.90
8459;DHT22;4266;48.816;9.154;2023-08-17T03:24:18;19.70;99.90
8459;DHT22;4266;48.816;9.154;2023-08-17T03:26:44;19.80;99.90
8459;DHT22;4266;48.816;9.154;2023-08-17T03:29:10;19.70;99.90
8459;DHT22;4266;48.816;9.154;2023-08-17T03:31:36;19.80;99.90
8459;DHT22;4266;48.816;9.154;2023-08-17T03:34:02;19.80;99.90
8459;DHT22;4266;48.816;9.154;2023-08-17T03:36:28;19.80;99.90
8459;DHT22;4266;48.816;9.154;2023-08-17T03:38:54;19.80;99.90
8459;DHT22;4266;48.816;9.154;2023-08-17T03:41:21;19.80;99.90
8459;DHT22;4266;48.816;9.154;2023-08-17T03:43:45;19.80;99.90
8459;DHT22;4266;48.816;9.154;2023-08-17T03:46:11;19.80;99.90
8459;DHT22;4266;48.816;9.154;2023-08-17T03:48:37;19.80;99.90
8459;DHT22;4266;48.816;9.154;2023-08-17T03:51:03;19.80;99.90
8459;DHT22;4266;48.816;9.154;2023-08-17T03:53:28;19.80;99.90
8459;DHT22;4266;48.816;9.154;2023-08-17T03:55:54;19.80;99.90
8459;DHT22;4266;48.816;9.154;2023-08-17T03:58:20;19.90;99.90
8459;DHT22;4266;48.816;9.154;2023-08-17T04:00:50;19.90;99.90
8459;DHT22;4266;48.816;9.154;2023-08-17T04:03:15;19.90;99.90
8459;DHT22;4266;48.816;9.154;2023-08-17T04:05:41;19.90;99.90
8459;DHT22;4266;48.816;9.154;2023-08-17T04:08:06;19.80;99.90
8459;DHT22;4266;48.816;9.154;2023-08-17T04:10:32;19.90;99.90
8459;DHT22;4266;48.816;9.154;2023-08-17T04:12:58;19.90;99.90
8459;DHT22;4266;48.816;9.154;2023-08-17T04:15:23;19.90;99.90
8459;DHT22;4266;48.816;9.154;2023-08-17T04:17:49;19.90;99.90
8459;DHT22;4266;48.816;9.154;2023-08-17T04:20:15;19.90;99.90
8459;DHT22;4266;48.816;9.154;2023-08-17T04:22:40;19.90;99.90
8459;DHT22;4266;48.816;9.154;2023-08-17T04:25:06;19.90;99.90
8459;DHT22;4266;48.816;9.154;2023-08-17T04:27:32;19.90;99.90
8459;DHT22;4266;48.816;9.154;2023-08-17T04:29:58;19.90;99.90
8459;DHT22;4266;48.816;9.154;2023-08-17T04:32:23;19.90;99.90
8459;DHT22;4266;48.816;9.154;2023-08-17T04:34:49;19.90;99.90
8459;DHT22;4266;48.816;9.154;2023-08-17T04:37:15;19.90;99.90
8459;DHT22;4266;48.816;9.154;2023-08-17T04:39:40;20.00;99.90
8459;DHT22;4266;48.816;9.154;2023-08-17T04:42:06;19.90;99.90
8459;DHT22;4266;48.816;9.154;2023-08-17T04:44:32;20.00;99.90
8459;DHT22;4266;48.816;9.154;2023-08-17T04:46:57;20.00;99.90
8459;DHT22;4266;48.816;9.154;2023-08-17T04:49:23;20.10;99.90
8459;DHT22;4266;48.816;9.154;2023-08-17T04:51:49;20.10;99.90
8459;DHT22;4266;48.816;9.154;2023-08-17T04:54:14;20.10;99.90
8459;DHT22;4266;48.816;9.154;2023-08-17T04:56:41;20.10;99.90
8459;DHT22;4266;48.816;9.154;2023-08-17T04:59:06;20.10;99.90
8459;DHT22;4266;48.816;9.154;2023-08-17T05:01:32;20.10;99.90
8459;DHT22;4266;48.816;9.154;2023-08-17T05:03:58;20.10;99.90
8459;DHT22;4266;48.816;9.154;2023-08-17T05:06:23;20.20;99.90
8459;DHT22;4266;48.816;9.154;2023-08-17T05:08:50;20.10;99.90
8459;DHT22;4266;48.816;9.154;2023-08-17T05:11:15;20.10;99.90
8459;DHT22;4266;48.816;9.154;2023-08-17T05:13:41;20.10;99.90
8459;DHT22;4266;48.816;9.154;2023-08-17T05:16:07;20.20;99.90
8459;DHT22;4266;48.816;9.154;2023-08-17T05:18:32;20.10;99.90
8459;DHT22;4266;48.816;9.154;2023-08-17T05:20:58;20.10;99.90
8459;DHT22;4266;48.816;9.154;2023-08-17T05:23:24;20.10;99.90
8459;DHT22;4266;48.816;9.154;2023-08-17T05:25:49;20.10;99.90
8459;DHT22;4266;48.816;9.154;2023-08-17T05:28:16;20.20;99.90
8459;DHT22;4266;48.816;9.154;2023-08-17T05:30:42;20.10;99.90
8459;DHT22;4266;48.816;9.154;2023-08-17T05:33:07;20.20;99.90
8459;DHT22;4266;48.816;9.154;2023-08-17T05:35:33;20.20;99.90
8459;DHT22;4266;48.816;9.154;2023-08-17T05:37:59;20.20;99.90
8459;DHT22;4266;48.816;9.154;2023-08-17T05:40:24;20.20;99.90
8459;DHT22;4266;48.816;9.154;2023-08-17T05:42:50;20.30;99.90
8459;DHT22;4266;48.816;9.154;2023-08-17T05:45:16;20.40;99.90
8459;DHT22;4266;48.816;9.154;2023-08-17T05:47:41;20.50;99.90
8459;DHT22;4266;48.816;9.154;2023-08-17T05:50:07;20.60;99.90
8459;DHT22;4266;48.816;9.154;2023-08-17T05:52:34;20.70;99.90
8459;DHT22;4266;48.816;9.154;2023-08-17T05:54:59;20.70;99.90
8459;DHT22;4266;48.816;9.154;2023-08-17T05:57:25;20.70;99.90
8459;DHT22;4266;48.816;9.154;2023-08-17T05:59:51;20.70;99.90
8459;DHT22;4266;48.816;9.154;2023-08-17T06:02:17;20.80;99.90
8459;DHT22;4266;48.816;9.154;2023-08-17T06:04:42;20.90;99.90
8459;DHT22;4266;48.816;9.154;2023-08-17T06:07:09;20.90;99.90
8459;DHT22;4266;48.816;9.154;2023-08-17T06:09:35;20.90;99.90
8459;DHT22;4266;48.816;9.154;2023-08-17T06:12:01;20.90;99.90
8459;DHT22;4266;48.816;9.154;2023-08-17T06:14:27;20.90;99.90
8459;DHT22;4266;48.816;9.154;2023-08-17T06:16:54;21.00;99.90
8459;DHT22;4266;48.816;9.154;2023-08-17T06:19:19;21.00;99.90
8459;DHT22;4266;48.816;9.154;2023-08-17T06:21:45;21.00;99.90
8459;DHT22;4266;48.816;9.154;2023-08-17T06:24:10;21.00;99.90
8459;DHT22;4266;48.816;9.154;2023-08-17T06:26:37;21.40;99.90
8459;DHT22;4266;48.816;9.154;2023-08-17T06:29:03;21.50;99.90
8459;DHT22;4266;48.816;9.154;2023-08-17T06:31:29;21.40;99.90
8459;DHT22;4266;48.816;9.154;2023-08-17T06:33:55;21.60;99.90
8459;DHT22;4266;48.816;9.154;2023-08-17T06:36:21;21.80;99.90
8459;DHT22;4266;48.816;9.154;2023-08-17T06:38:47;21.70;99.90
8459;DHT22;4266;48.816;9.154;2023-08-17T06:41:13;21.70;99.90
8459;DHT22;4266;48.816;9.154;2023-08-17T06:43:38;21.80;99.90
8459;DHT22;4266;48.816;9.154;2023-08-17T06:46:04;21.90;99.90
8459;DHT22;4266;48.816;9.154;2023-08-17T06:48:30;22.10;99.90
8459;DHT22;4266;48.816;9.154;2023-08-17T06:50:55;22.10;99.90
8459;DHT22;4266;48.816;9.154;2023-08-17T06:53:22;22.50;99.90
8459;DHT22;4266;48.816;9.154;2023-08-17T06:55:47;22.50;99.90
8459;DHT22;4266;48.816;9.154;2023-08-17T06:58:13;22.90;99.90
8459;DHT22;4266;48.816;9.154;2023-08-17T07:00:39;22.90;99.90
8459;DHT22;4266;48.816;9.154;2023-08-17T07:03:05;22.60;99.90
8459;DHT22;4266;48.816;9.154;2023-08-17T07:05:31;22.80;99.90
8459;DHT22;4266;48.816;9.154;2023-08-17T07:07:57;22.80;99.90
8459;DHT22;4266;48.816;9.154;2023-08-17T07:10:22;23.00;99.90
8459;DHT22;4266;48.816;9.154;2023-08-17T07:12:48;23.40;99.90
8459;DHT22;4266;48.816;9.154;2023-08-17T07:15:14;23.30;99.90
8459;DHT22;4266;48.816;9.154;2023-08-17T07:17:39;23.40;99.90
8459;DHT22;4266;48.816;9.154;2023-08-17T07:20:06;24.00;99.90
8459;DHT22;4266;48.816;9.154;2023-08-17T07:22:32;23.70;99.90
8459;DHT22;4266;48.816;9.154;2023-08-17T07:24:58;23.70;99.90
8459;DHT22;4266;48.816;9.154;2023-08-17T07:27:25;24.30;99.80
8459;DHT22;4266;48.816;9.154;2023-08-17T07:29:50;24.30;99.70
8459;DHT22;4266;48.816;9.154;2023-08-17T07:32:16;24.50;99.60
8459;DHT22;4266;48.816;9.154;2023-08-17T07:34:42;24.80;99.40
8459;DHT22;4266;48.816;9.154;2023-08-17T07:37:07;24.60;99.00
8459;DHT22;4266;48.816;9.154;2023-08-17T07:39:33;24.90;98.70
8459;DHT22;4266;48.816;9.154;2023-08-17T07:41:59;24.70;98.40
8459;DHT22;4266;48.816;9.154;2023-08-17T07:44:24;25.10;98.40
8459;DHT22;4266;48.816;9.154;2023-08-17T07:46:50;25.20;98.30
8459;DHT22;4266;48.816;9.154;2023-08-17T07:49:16;25.50;98.30
8459;DHT22;4266;48.816;9.154;2023-08-17T07:51:41;25.70;97.80
8459;DHT22;4266;48.816;9.154;2023-08-17T07:54:07;25.70;98.20
8459;DHT22;4266;48.816;9.154;2023-08-17T07:56:33;26.60;97.20
8459;DHT22;4266;48.816;9.154;2023-08-17T07:58:58;27.70;96.60
8459;DHT22;4266;48.816;9.154;2023-08-17T08:01:24;27.50;96.70
8459;DHT22;4266;48.816;9.154;2023-08-17T08:03:50;27.90;96.20
8459;DHT22;4266;48.816;9.154;2023-08-17T08:06:15;27.70;95.50
8459;DHT22;4266;48.816;9.154;2023-08-17T08:08:41;27.20;95.80
8459;DHT22;4266;48.816;9.154;2023-08-17T08:11:07;27.60;96.00
8459;DHT22;4266;48.816;9.154;2023-08-17T08:13:32;27.60;95.70
8459;DHT22;4266;48.816;9.154;2023-08-17T08:15:58;27.30;95.60
8459;DHT22;4266;48.816;9.154;2023-08-17T08:18:25;26.90;95.80
8459;DHT22;4266;48.816;9.154;2023-08-17T08:20:51;27.20;95.90
8459;DHT22;4266;48.816;9.154;2023-08-17T08:23:17;27.20;95.90
8459;DHT22;4266;48.816;9.154;2023-08-17T08:25:42;27.30;95.60
8459;DHT22;4266;48.816;9.154;2023-08-17T08:28:08;27.60;95.30
8459;DHT22;4266;48.816;9.154;2023-08-17T08:30:35;27.60;95.20
8459;DHT22;4266;48.816;9.154;2023-08-17T08:33:01;27.60;95.20
8459;DHT22;4266;48.816;9.154;2023-08-17T08:35:26;27.60;95.40
8459;DHT22;4266;48.816;9.154;2023-08-17T08:37:51;28.10;94.80
8459;DHT22;4266;48.816;9.154;2023-08-17T08:40:18;28.70;93.50
8459;DHT22;4266;48.816;9.154;2023-08-17T08:42:44;28.60;93.40
8459;DHT22;4266;48.816;9.154;2023-08-17T08:45:10;28.00;94.00
8459;DHT22;4266;48.816;9.154;2023-08-17T08:47:36;28.10;93.90
8459;DHT22;4266;48.816;9.154;2023-08-17T08:50:02;28.80;93.60
8459;DHT22;4266;48.816;9.154;2023-08-17T08:52:34;28.70;92.30
8459;DHT22;4266;48.816;9.154;2023-08-17T08:54:59;28.70;92.70
8459;DHT22;4266;48.816;9.154;2023-08-17T08:57:24;29.20;92.60
8459;DHT22;4266;48.816;9.154;2023-08-17T08:59:51;30.00;92.10
8459;DHT22;4266;48.816;9.154;2023-08-17T09:02:16;30.00;92.10
8459;DHT22;4266;48.816;9.154;2023-08-17T09:04:43;29.80;91.00
8459;DHT22;4266;48.816;9.154;2023-08-17T09:07:09;29.60;91.10
8459;DHT22;4266;48.816;9.154;2023-08-17T09:09:35;29.60;91.10
8459;DHT22;4266;48.816;9.154;2023-08-17T09:12:02;30.20;90.70
8459;DHT22;4266;48.816;9.154;2023-08-17T09:14:27;30.20;90.70
8459;DHT22;4266;48.816;9.154;2023-08-17T09:16:53;30.60;90.00
8459;DHT22;4266;48.816;9.154;2023-08-17T09:19:19;30.20;90.30
8459;DHT22;4266;48.816;9.154;2023-08-17T09:21:44;30.00;90.20
8459;DHT22;4266;48.816;9.154;2023-08-17T09:24:10;29.60;89.90
8459;DHT22;4266;48.816;9.154;2023-08-17T09:26:36;29.60;89.40
8459;DHT22;4266;48.816;9.154;2023-08-17T09:29:03;30.20;91.00
8459;DHT22;4266;48.816;9.154;2023-08-17T09:31:27;30.20;90.70
8459;DHT22;4266;48.816;9.154;2023-08-17T09:33:54;30.40;90.20
8459;DHT22;4266;48.816;9.154;2023-08-17T09:36:21;30.50;90.20
8459;DHT22;4266;48.816;9.154;2023-08-17T09:38:47;30.50;90.60
8459;DHT22;4266;48.816;9.154;2023-08-17T09:41:12;30.60;89.30
8459;DHT22;4266;48.816;9.154;2023-08-17T09:43:38;30.00;90.20
8459;DHT22;4266;48.816;9.154;2023-08-17T09:46:04;30.00;90.20
8459;DHT22;4266;48.816;9.154;2023-08-17T09:48:29;30.20;90.40
8459;DHT22;4266;48.816;9.154;2023-08-17T09:50:55;30.50;91.10
8459;DHT22;4266;48.816;9.154;2023-08-17T09:53:21;30.70;90.60
8459;DHT22;4266;48.816;9.154;2023-08-17T09:55:47;30.60;89.80
8459;DHT22;4266;48.816;9.154;2023-08-17T09:58:14;30.90;88.10
8459;DHT22;4266;48.816;9.154;2023-08-17T10:00:46;30.90;87.90
8459;DHT22;4266;48.816;9.154;2023-08-17T10:03:11;31.10;89.10
8459;DHT22;4266;48.816;9.154;2023-08-17T10:05:38;30.70;89.40
8459;DHT22;4266;48.816;9.154;2023-08-17T10:08:03;31.20;89.10
8459;DHT22;4266;48.816;9.154;2023-08-17T10:10:29;31.20;89.10
8459;DHT22;4266;48.816;9.154;2023-08-17T10:13:16;31.40;89.00
8459;DHT22;4266;48.816;9.154;2023-08-17T10:15:41;31.60;86.30
8459;DHT22;4266;48.816;9.154;2023-08-17T10:18:09;31.60;86.40
8459;DHT22;4266;48.816;9.154;2023-08-17T10:20:34;31.80;85.70
8459;DHT22;4266;48.816;9.154;2023-08-17T10:23:02;31.60;86.00
8459;DHT22;4266;48.816;9.154;2023-08-17T10:25:26;31.80;87.10
8459;DHT22;4266;48.816;9.154;2023-08-17T10:27:52;31.80;84.30
8459;DHT22;4266;48.816;9.154;2023-08-17T10:30:18;31.60;83.30
8459;DHT22;4266;48.816;9.154;2023-08-17T10:32:44;30.60;83.60
8459;DHT22;4266;48.816;9.154;2023-08-17T10:35:10;30.20;85.60
8459;DHT22;4266;48.816;9.154;2023-08-17T10:37:36;30.20;85.60
8459;DHT22;4266;48.816;9.154;2023-08-17T10:40:03;30.40;84.70
8459;DHT22;4266;48.816;9.154;2023-08-17T10:42:31;30.80;84.70
8459;DHT22;4266;48.816;9.154;2023-08-17T10:44:56;31.60;85.90
8459;DHT22;4266;48.816;9.154;2023-08-17T10:47:23;32.00;85.50
8459;DHT22;4266;48.816;9.154;2023-08-17T10:49:48;31.90;84.90
8459;DHT22;4266;48.816;9.154;2023-08-17T10:52:13;32.00;84.90
8459;DHT22;4266;48.816;9.154;2023-08-17T10:54:39;31.30;83.00
8459;DHT22;4266;48.816;9.154;2023-08-17T10:59:37;31.10;87.20
8459;DHT22;4266;48.816;9.154;2023-08-17T11:02:03;31.60;85.50
8459;DHT22;4266;48.816;9.154;2023-08-17T11:04:32;31.20;82.50
8459;DHT22;4266;48.816;9.154;2023-08-17T11:07:00;31.20;82.60
8459;DHT22;4266;48.816;9.154;2023-08-17T11:09:25;31.50;84.70
8459;DHT22;4266;48.816;9.154;2023-08-17T11:11:52;31.10;83.50
8459;DHT22;4266;48.816;9.154;2023-08-17T11:14:17;31.90;83.90
8459;DHT22;4266;48.816;9.154;2023-08-17T11:16:42;31.90;83.20
8459;DHT22;4266;48.816;9.154;2023-08-17T11:19:08;31.70;81.00
8459;DHT22;4266;48.816;9.154;2023-08-17T11:21:34;31.90;80.10
8459;DHT22;4266;48.816;9.154;2023-08-17T11:24:00;31.60;81.20
8459;DHT22;4266;48.816;9.154;2023-08-17T11:26:26;31.60;81.20
8459;DHT22;4266;48.816;9.154;2023-08-17T11:28:52;32.40;84.10
8459;DHT22;4266;48.816;9.154;2023-08-17T11:31:18;32.30;84.00
8459;DHT22;4266;48.816;9.154;2023-08-17T11:33:44;32.50;82.60
8459;DHT22;4266;48.816;9.154;2023-08-17T11:36:10;32.40;83.10
8459;DHT22;4266;48.816;9.154;2023-08-17T11:38:38;32.40;83.10
8459;DHT22;4266;48.816;9.154;2023-08-17T11:41:03;32.50;81.30
8459;DHT22;4266;48.816;9.154;2023-08-17T11:43:29;31.80;80.50
8459;DHT22;4266;48.816;9.154;2023-08-17T11:45:55;32.30;81.40
8459;DHT22;4266;48.816;9.154;2023-08-17T11:48:21;32.00;81.30
8459;DHT22;4266;48.816;9.154;2023-08-17T11:50:46;31.80;83.40
8459;DHT22;4266;48.816;9.154;2023-08-17T11:53:12;31.80;81.50
8459;DHT22;4266;48.816;9.154;2023-08-17T11:55:37;31.60;83.10
8459;DHT22;4266;48.816;9.154;2023-08-17T11:58:03;31.40;84.20
8459;DHT22;4266;48.816;9.154;2023-08-17T12:00:34;31.50;85.20
8459;DHT22;4266;48.816;9.154;2023-08-17T12:02:55;31.30;84.40
8459;DHT22;4266;48.816;9.154;2023-08-17T12:05:21;30.90;84.60
8459;DHT22;4266;48.816;9.154;2023-08-17T12:07:47;30.60;85.60
8459;DHT22;4266;48.816;9.154;2023-08-17T12:10:13;30.60;85.60
8459;DHT22;4266;48.816;9.154;2023-08-17T12:12:38;30.50;87.00
8459;DHT22;4266;48.816;9.154;2023-08-17T12:15:05;30.80;85.50
8459;DHT22;4266;48.816;9.154;2023-08-17T12:17:31;30.70;87.10
8459;DHT22;4266;48.816;9.154;2023-08-17T12:19:58;30.80;86.80
8459;DHT22;4266;48.816;9.154;2023-08-17T12:22:23;30.70;86.30
8459;DHT22;4266;48.816;9.154;2023-08-17T12:24:49;30.50;86.90
8459;DHT22;4266;48.816;9.154;2023-08-17T12:27:15;30.50;87.40
8459;DHT22;4266;48.816;9.154;2023-08-17T12:29:46;30.50;86.40
8459;DHT22;4266;48.816;9.154;2023-08-17T12:32:13;30.10;86.20
8459;DHT22;4266;48.816;9.154;2023-08-17T12:34:37;29.70;87.50
8459;DHT22;4266;48.816;9.154;2023-08-17T12:37:03;29.40;88.20
8459;DHT22;4266;48.816;9.154;2023-08-17T12:39:28;29.30;88.40
8459;DHT22;4266;48.816;9.154;2023-08-17T12:41:55;29.00;89.30
8459;DHT22;4266;48.816;9.154;2023-08-17T12:44:21;29.00;89.10
8459;DHT22;4266;48.816;9.154;2023-08-17T12:46:46;29.00;89.80
8459;DHT22;4266;48.816;9.154;2023-08-17T12:49:12;28.90;89.50
8459;DHT22;4266;48.816;9.154;2023-08-17T12:51:37;28.70;90.10
8459;DHT22;4266;48.816;9.154;2023-08-17T12:54:03;28.50;90.00
8459;DHT22;4266;48.816;9.154;2023-08-17T12:56:29;28.30;90.90
8459;DHT22;4266;48.816;9.154;2023-08-17T12:58:55;28.30;90.50
8459;DHT22;4266;48.816;9.154;2023-08-17T13:01:20;28.20;90.80
8459;DHT22;4266;48.816;9.154;2023-08-17T13:03:46;28.10;90.80
8459;DHT22;4266;48.816;9.154;2023-08-17T13:06:12;27.80;90.40
8459;DHT22;4266;48.816;9.154;2023-08-17T13:08:38;27.80;90.40
8459;DHT22;4266;48.816;9.154;2023-08-17T13:11:04;27.70;91.20
8459;DHT22;4266;48.816;9.154;2023-08-17T13:13:29;27.40;91.70
8459;DHT22;4266;48.816;9.154;2023-08-17T13:15:56;26.90;93.30
8459;DHT22;4266;48.816;9.154;2023-08-17T13:18:21;26.90;93.20
8459;DHT22;4266;48.816;9.154;2023-08-17T13:20:47;26.70;93.60
8459;DHT22;4266;48.816;9.154;2023-08-17T13:23:13;26.40;94.00
8459;DHT22;4266;48.816;9.154;2023-08-17T13:25:39;26.10;94.60
8459;DHT22;4266;48.816;9.154;2023-08-17T13:28:05;25.90;95.50
8459;DHT22;4266;48.816;9.154;2023-08-17T13:30:30;25.80;96.50
8459;DHT22;4266;48.816;9.154;2023-08-17T13:32:56;25.60;97.80
8459;DHT22;4266;48.816;9.154;2023-08-17T13:35:22;25.40;98.70
8459;DHT22;4266;48.816;9.154;2023-08-17T13:37:51;25.30;99.20
8459;DHT22;4266;48.816;9.154;2023-08-17T13:40:17;25.00;99.90
8459;DHT22;4266;48.816;9.154;2023-08-17T13:42:42;25.00;99.90
8459;DHT22;4266;48.816;9.154;2023-08-17T13:45:09;24.80;99.90
8459;DHT22;4266;48.816;9.154;2023-08-17T13:47:35;24.80;99.90
8459;DHT22;4266;48.816;9.154;2023-08-17T13:50:00;24.70;99.90
8459;DHT22;4266;48.816;9.154;2023-08-17T13:52:26;24.50;99.90
8459;DHT22;4266;48.816;9.154;2023-08-17T13:54:52;24.30;99.90
8459;DHT22;4266;48.816;9.154;2023-08-17T13:57:18;24.30;99.90
8459;DHT22;4266;48.816;9.154;2023-08-17T13:59:44;24.30;99.90
8459;DHT22;4266;48.816;9.154;2023-08-17T14:02:10;24.10;99.90
8459;DHT22;4266;48.816;9.154;2023-08-17T14:04:36;24.10;99.90
8459;DHT22;4266;48.816;9.154;2023-08-17T14:07:01;24.00;99.90
8459;DHT22;4266;48.816;9.154;2023-08-17T14:09:29;24.00;99.90
8459;DHT22;4266;48.816;9.154;2023-08-17T14:11:54;23.90;99.90
8459;DHT22;4266;48.816;9.154;2023-08-17T14:14:19;24.00;99.90
8459;DHT22;4266;48.816;9.154;2023-08-17T14:16:45;23.90;99.90
8459;DHT22;4266;48.816;9.154;2023-08-17T14:19:10;24.00;99.90
8459;DHT22;4266;48.816;9.154;2023-08-17T14:21:36;24.00;99.90
8459;DHT22;4266;48.816;9.154;2023-08-17T14:24:02;23.90;99.90
8459;DHT22;4266;48.816;9.154;2023-08-17T14:26:28;23.90;99.90
8459;DHT22;4266;48.816;9.154;2023-08-17T14:28:53;23.90;99.90
8459;DHT22;4266;48.816;9.154;2023-08-17T14:31:19;24.00;99.90
8459;DHT22;4266;48.816;9.154;2023-08-17T14:33:45;24.00;99.90
8459;DHT22;4266;48.816;9.154;2023-08-17T14:36:11;23.90;99.90
8459;DHT22;4266;48.816;9.154;2023-08-17T14:38:37;24.00;99.90
8459;DHT22;4266;48.816;9.154;2023-08-17T14:41:03;24.20;99.90
8459;DHT22;4266;48.816;9.154;2023-08-17T14:43:29;24.40;99.90
8459;DHT22;4266;48.816;9.154;2023-08-17T14:45:55;24.40;99.90
8459;DHT22;4266;48.816;9.154;2023-08-17T14:48:20;24.60;99.90
8459;DHT22;4266;48.816;9.154;2023-08-17T14:50:46;24.60;99.90
8459;DHT22;4266;48.816;9.154;2023-08-17T14:53:12;24.90;99.30
8459;DHT22;4266;48.816;9.154;2023-08-17T14:55:38;24.80;99.30
8459;DHT22;4266;48.816;9.154;2023-08-17T14:58:04;25.00;99.90
8459;DHT22;4266;48.816;9.154;2023-08-17T15:00:31;24.70;99.20
8459;DHT22;4266;48.816;9.154;2023-08-17T15:02:57;24.70;99.20
8459;DHT22;4266;48.816;9.154;2023-08-17T15:05:23;24.90;99.60
8459;DHT22;4266;48.816;9.154;2023-08-17T15:07:48;25.00;99.10
8459;DHT22;4266;48.816;9.154;2023-08-17T15:10:14;25.20;99.40
8459;DHT22;4266;48.816;9.154;2023-08-17T15:12:40;25.20;98.70
8459;DHT22;4266;48.816;9.154;2023-08-17T15:15:06;25.40;98.60
8459;DHT22;4266;48.816;9.154;2023-08-17T15:17:33;25.40;98.00
8459;DHT22;4266;48.816;9.154;2023-08-17T15:19:59;25.40;98.00
8459;DHT22;4266;48.816;9.154;2023-08-17T15:22:25;25.60;98.00
8459;DHT22;4266;48.816;9.154;2023-08-17T15:24:51;25.50;98.00
8459;DHT22;4266;48.816;9.154;2023-08-17T15:27:16;25.60;98.10
8459;DHT22;4266;48.816;9.154;2023-08-17T15:29:43;25.70;98.60
8459;DHT22;4266;48.816;9.154;2023-08-17T15:32:09;25.70;98.60
8459;DHT22;4266;48.816;9.154;2023-08-17T15:34:35;25.80;98.60
8459;DHT22;4266;48.816;9.154;2023-08-17T15:37:01;25.80;98.60
8459;DHT22;4266;48.816;9.154;2023-08-17T15:39:26;25.80;98.60
8459;DHT22;4266;48.816;9.154;2023-08-17T15:41:52;25.70;98.50
8459;DHT22;4266;48.816;9.154;2023-08-17T15:44:18;25.90;98.30
8459;DHT22;4266;48.816;9.154;2023-08-17T15:46:44;25.90;98.10
8459;DHT22;4266;48.816;9.154;2023-08-17T15:49:10;26.00;97.80
8459;DHT22;4266;48.816;9.154;2023-08-17T15:51:35;25.90;97.80
8459;DHT22;4266;48.816;9.154;2023-08-17T15:54:02;26.00;97.90
8459;DHT22;4266;48.816;9.154;2023-08-17T15:56:28;26.00;97.70